Orlando, FL

4:27 PM EDT on July 05, 2015 (GMT -0400)
Andes Ave - Central Florida Composite Squadron | | Change Station
CLOSE
Current Station
Personal Weather Station
Location: Orlando, FL
Elevation: 125 ft
Nearby Weather Stations

Elev 125 ft 28.54 °N, 81.32 °W | Updated 1 minute ago

Scattered Clouds
Scattered Clouds
103.6 °F
Feels Like 118 °F
N
7.4
Wind Variable Wind from South

Today
High -- | Low -- °F
--% Chance of Precip.
Yesterday
High -- | Low -- °F
Precip. -- in
6:32 AM 8:27 PM
Waning Gibbous, 82% visible
Pressure 30.09 in
Visibility 10.0 miles
Clouds Few 5500 ft
Scattered Clouds 7000 ft
Heat Index 118 °F
Dew Point 74 °F
Humidity 40%
Rainfall 0.00 in
Snow Depth Not available.
UV 8 out of 12
Pollen 1.90 out of 12
Air Quality Not available.
Flu Activity Not available.
SPECI KORL 052009Z AUTO 20009KT 10SM VCTS FEW055 SCT070 34/22 A3009 RMK AO2 LTG DSNT NW-E T03390222

More Conditions Fewer Conditions

Pressure 30.09 in
Visibility 10.0 miles
Clouds Few 5500 ft
Scattered Clouds 7000 ft
Heat Index 118 °F
Dew Point 74 °F
Humidity 40%
Rainfall 0.00 in
Snow Depth Not available.
UV 8 out of 12
Pollen 1.90 out of 12
Air Quality Not available.
Flu Activity Not available.
SPECI KORL 052009Z AUTO 20009KT 10SM VCTS FEW055 SCT070 34/22 A3009 RMK AO2 LTG DSNT NW-E T03390222

More Conditions Fewer Conditions

Nowcast | as of 3:47 PM EDT on July 5, 2015

The East Coast sea breeze continues to push inland across the interior counties at mid afternoon. Coverage and intensity of lightning storms will continue to increase as the sea breeze boundary interacts with lake breezes...the West Coast sea breeze and thunderstorm outflow boundaries. Some storms will become strong over interior Volusia...Seminole...Orange...Lake and Osceola counties through 7 PM...containing frequent lightning strikes...strong downburst winds around 50 mph...hail and very heavy rain. Storms are slow moving...generally toward the north or northeast at 10 mph. Move indoors to safety if skies look threatening or if you hear thunder. Additional details...including graphics are available online at: http://www.Srh.NOAA.Gov/mlb/blog.Php

×

10-Day Weather Forecast

×

Almanac

Astronomy

Jul. 05, 2015 Rise Set
Actual Time
Civil Twilight
Nautical Twilight
Astronomical Twilight
Moon
Length of Visible Light
Length of Day
Tomorrow will be .
, % of the Moon is Illuminated

Today's Extremes

State Highs State Lows

Community

WunderPhotos

Upload Photos

1,835,375 photos uploaded!

WunderBlogs® & News

Nearby

Air Quality

  Air Quality AQ Index Pollutant
Not available.

Snow Depth

Station Depth Elevation

Earthquake Activity

City Distance Mag. Time & Date
Minimum magnitude displayed is 2.5.

Coastal Water Temperatures

Place Temperature

Stations

Nearby Weather Stations

Station Location Temp. Windchill Dew Point Humidity Wind Precip. Elev Updated Type